createdAt,value
2022-11-01T00:00:18.382Z,100297.72
2022-11-01T00:02:20.598Z,100294.03
2022-11-01T00:04:22.753Z,100290.41
2022-11-01T00:06:24.926Z,100291.41
2022-11-01T00:08:27.190Z,100299.06
2022-11-01T00:10:29.700Z,100294.38
2022-11-01T00:12:32.177Z,100302.59
2022-11-01T00:14:34.305Z,100301.44
2022-11-01T00:16:36.571Z,100306.44
2022-11-01T00:18:38.638Z,100306.22
2022-11-01T00:20:40.617Z,100310.53
2022-11-01T00:22:42.582Z,100301.41
2022-11-01T00:24:44.581Z,100306.88
2022-11-01T00:26:46.633Z,100305.19
2022-11-01T00:28:49.685Z,100301.56
2022-11-01T00:30:56.359Z,100307.78
2022-11-01T00:32:58.526Z,100297.88
2022-11-01T00:35:00.467Z,100297.97
2022-11-01T00:37:02.565Z,100292.63
2022-11-01T00:39:05.548Z,100289.03
2022-11-01T00:41:07.917Z,100292.66
2022-11-01T00:43:11.592Z,100300.00
2022-11-01T00:45:13.490Z,100289.75
2022-11-01T00:47:15.552Z,100299.91
2022-11-01T00:49:17.567Z,100297.81
2022-11-01T00:51:20.188Z,100295.13
2022-11-01T00:53:22.655Z,100290.56
2022-11-01T00:55:24.523Z,100287.03
2022-11-01T00:57:26.671Z,100287.84
2022-11-01T00:59:28.759Z,100288.72
2022-11-01T01:01:32.596Z,100290.50
2022-11-01T01:03:34.955Z,100288.72
2022-11-01T01:05:37.570Z,100285.16
2022-11-01T01:07:39.801Z,100286.19
2022-11-01T01:09:42.034Z,100282.66
2022-11-01T01:11:44.021Z,100271.91
2022-11-01T01:13:45.933Z,100277.38
2022-11-01T01:15:48.175Z,100270.22
2022-11-01T01:17:50.789Z,100275.25
2022-11-01T01:19:52.871Z,100265.56
2022-11-01T01:21:54.761Z,100270.63
2022-11-01T01:23:56.777Z,100279.66
2022-11-01T01:25:58.760Z,100274.00
2022-11-01T01:28:01.235Z,100276.41
2022-11-01T01:30:10.376Z,100270.25
2022-11-01T01:32:18.799Z,100259.69
2022-11-01T01:34:24.073Z,100278.94
2022-11-01T01:36:26.128Z,100277.38
2022-11-01T01:38:28.218Z,100273.88
2022-11-01T01:40:30.622Z,100275.63
2022-11-01T01:42:44.084Z,100269.28
2022-11-01T01:44:52.124Z,100268.59
2022-11-01T01:46:54.275Z,100267.00
2022-11-01T01:48:59.820Z,100263.59
2022-11-01T01:51:05.978Z,100261.22
2022-11-01T01:53:34.339Z,100253.44
2022-11-01T01:55:49.115Z,100255.47
2022-11-01T01:57:53.102Z,100253.72
2022-11-01T01:59:55.079Z,100254.06
2022-11-01T02:01:59.302Z,100246.69
2022-11-01T02:04:03.880Z,100253.81
2022-11-01T02:06:21.227Z,100264.97
2022-11-01T02:08:29.567Z,100262.22
2022-11-01T02:10:35.990Z,100261.47
2022-11-01T02:12:37.921Z,100258.22
2022-11-01T02:14:42.494Z,100262.75
2022-11-01T02:17:02.535Z,100263.91
2022-11-01T02:19:38.324Z,100265.56
2022-11-01T02:21:46.164Z,100262.63
2022-11-01T02:24:31.491Z,100248.31
2022-11-01T02:27:03.285Z,100252.09
2022-11-01T02:29:14.755Z,100246.53
2022-11-01T02:31:42.133Z,100252.75
2022-11-01T02:34:13.285Z,100250.72
2022-11-01T02:36:31.660Z,100249.28
2022-11-01T02:38:44.387Z,100248.31
2022-11-01T02:41:08.576Z,100232.91
2022-11-01T02:43:21.620Z,100241.03
2022-11-01T02:45:31.771Z,100240.16
2022-11-01T02:47:34.677Z,100236.53
2022-11-01T02:49:48.349Z,100228.56
2022-11-01T02:51:51.572Z,100239.25
2022-11-01T02:53:53.573Z,100235.66
2022-11-01T02:55:55.533Z,100233.84
2022-11-01T02:58:20.277Z,100246.47
2022-11-01T03:00:29.097Z,100245.88
2022-11-01T03:02:44.788Z,100243.31
2022-11-01T03:04:48.249Z,100234.84
2022-11-01T03:06:56.074Z,100253.19
2022-11-01T03:09:02.636Z,100254.38
2022-11-01T03:11:15.953Z,100261.59
2022-11-01T03:13:29.363Z,100264.25
2022-11-01T03:15:42.905Z,100263.56
2022-11-01T03:17:53.363Z,100259.53
2022-11-01T03:20:07.046Z,100272.78
2022-11-01T03:22:21.532Z,100280.06
2022-11-01T03:24:36.311Z,100271.28
2022-11-01T03:26:39.879Z,100273.84
2022-11-01T03:28:46.495Z,100275.81
2022-11-01T03:30:57.348Z,100280.91
2022-11-01T03:32:59.561Z,100278.25
2022-11-01T03:35:04.591Z,100276.06
2022-11-01T03:37:11.783Z,100274.38
2022-11-01T03:39:25.249Z,100273.28
2022-11-01T03:41:30.306Z,100272.28
2022-11-01T03:43:35.648Z,100267.69
2022-11-01T03:45:40.523Z,100279.25
2022-11-01T03:47:43.319Z,100278.47
2022-11-01T03:49:45.585Z,100281.91
2022-11-01T03:52:37.476Z,100276.75
2022-11-01T03:54:39.588Z,100278.47
2022-11-01T03:56:42.071Z,100282.84
2022-11-01T03:58:45.279Z,100280.56
2022-11-01T04:00:47.349Z,100272.38
2022-11-01T04:02:51.072Z,100281.66
2022-11-01T04:04:52.961Z,100273.00
2022-11-01T04:06:54.942Z,100275.56
2022-11-01T04:08:57.419Z,100270.09
2022-11-01T04:10:59.887Z,100280.41
2022-11-01T04:13:02.414Z,100276.63
2022-11-01T04:15:23.925Z,100278.50
2022-11-01T04:17:44.472Z,100272.75
2022-11-01T04:20:04.976Z,100275.81
2022-11-01T04:22:07.131Z,100273.69
2022-11-01T04:24:09.651Z,100274.94
2022-11-01T04:26:18.108Z,100270.09
2022-11-01T04:28:20.535Z,100267.31
2022-11-01T04:30:27.303Z,100260.16
2022-11-01T04:32:31.877Z,100258.97
2022-11-01T04:34:43.504Z,100259.22
2022-11-01T04:36:45.450Z,100250.72
2022-11-01T04:38:52.661Z,100253.50
2022-11-01T04:40:56.831Z,100249.03
2022-11-01T04:42:59.558Z,100246.34
2022-11-01T04:45:02.688Z,100244.03
2022-11-01T04:47:04.851Z,100245.03
2022-11-01T04:49:06.847Z,100238.66
2022-11-01T04:51:35.121Z,100234.75
2022-11-01T04:53:37.777Z,100231.19
2022-11-01T04:55:40.103Z,100232.31
2022-11-01T04:57:43.289Z,100240.56
2022-11-01T04:59:45.664Z,100245.09
2022-11-01T05:01:47.727Z,100240.75
2022-11-01T05:03:50.130Z,100236.47
2022-11-01T05:05:52.253Z,100244.75
2022-11-01T05:08:08.611Z,100242.50
2022-11-01T05:10:10.994Z,100243.25
2022-11-01T05:16:19.052Z,100248.97
2022-11-01T05:18:21.950Z,100241.72
2022-11-01T05:20:24.501Z,100247.22
2022-11-01T05:22:26.654Z,100236.31
2022-11-01T05:24:28.738Z,100245.66
2022-11-01T05:26:33.861Z,100242.28
2022-11-01T05:28:35.848Z,100243.81
2022-11-01T05:30:38.479Z,100238.59
2022-11-01T05:32:40.686Z,100244.97
2022-11-01T05:34:46.033Z,100250.47
2022-11-01T05:36:51.159Z,100250.63
2022-11-01T05:39:00.097Z,100248.16
2022-11-01T05:41:03.861Z,100251.34
2022-11-01T05:43:05.963Z,100247.09
2022-11-01T05:45:10.175Z,100247.22
2022-11-01T05:47:17.205Z,100253.31
2022-11-01T05:49:20.171Z,100245.81
2022-11-01T05:51:22.957Z,100245.09
2022-11-01T05:53:25.021Z,100246.97
2022-11-01T05:55:26.842Z,100253.19
2022-11-01T05:57:33.117Z,100244.53
2022-11-01T05:59:35.218Z,100247.41
2022-11-01T06:01:37.105Z,100250.88
2022-11-01T06:03:39.159Z,100244.13
2022-11-01T06:06:19.449Z,100252.84
2022-11-01T06:08:21.475Z,100247.22
2022-11-01T06:10:23.608Z,100246.16
2022-11-01T06:12:25.774Z,100253.06
2022-11-01T06:14:27.615Z,100258.94
2022-11-01T06:16:29.634Z,100263.94
2022-11-01T06:18:31.826Z,100260.03
2022-11-01T06:20:34.844Z,100268.72
2022-11-01T06:22:36.965Z,100264.94
2022-11-01T06:24:38.884Z,100269.16
2022-11-01T06:26:40.647Z,100267.22
2022-11-01T06:28:42.822Z,100276.72
2022-11-01T06:30:44.608Z,100277.50
2022-11-01T06:32:46.766Z,100272.59
2022-11-01T06:34:48.618Z,100271.47
2022-11-01T06:36:50.608Z,100278.56
2022-11-01T06:38:52.713Z,100276.31
2022-11-01T06:40:54.581Z,100276.84
2022-11-01T06:43:05.660Z,100270.56
2022-11-01T06:45:07.953Z,100263.03
2022-11-01T06:47:12.709Z,100260.19
2022-11-01T06:49:17.996Z,100256.47
2022-11-01T06:51:21.271Z,100253.38
2022-11-01T06:53:26.084Z,100244.25
2022-11-01T06:55:29.488Z,100249.38
2022-11-01T06:57:31.394Z,100244.84
2022-11-01T06:59:33.323Z,100240.25
2022-11-01T07:01:35.225Z,100246.53
2022-11-01T07:03:37.197Z,100244.84
2022-11-01T07:05:40.446Z,100244.00
2022-11-01T07:07:42.538Z,100242.63
2022-11-01T07:09:47.685Z,100243.47
2022-11-01T07:11:49.406Z,100244.59
2022-11-01T07:13:51.281Z,100241.72
2022-11-01T07:15:53.132Z,100246.94
2022-11-01T07:17:58.832Z,100252.00
2022-11-01T07:20:00.765Z,100242.38
2022-11-01T07:22:02.958Z,100239.31
2022-11-01T07:24:05.442Z,100237.06
2022-11-01T07:26:07.302Z,100230.84
2022-11-01T07:28:09.736Z,100236.69
2022-11-01T07:30:12.263Z,100245.22
2022-11-01T07:32:14.135Z,100237.38
2022-11-01T07:34:16.079Z,100231.72
2022-11-01T07:36:18.283Z,100225.88
2022-11-01T07:38:20.389Z,100223.47
2022-11-01T07:40:27.654Z,100226.25
2022-11-01T07:42:29.917Z,100225.22
2022-11-01T07:44:31.822Z,100224.50
2022-11-01T07:46:33.691Z,100233.28
2022-11-01T07:48:37.061Z,100224.13
2022-11-01T07:50:40.746Z,100224.63
2022-11-01T07:52:43.153Z,100227.03
2022-11-01T07:54:45.022Z,100231.31
2022-11-01T07:56:48.024Z,100230.22
2022-11-01T07:58:49.888Z,100225.50
2022-11-01T08:00:51.726Z,100230.53
2022-11-01T08:03:01.217Z,100234.13
2022-11-01T08:05:03.597Z,100236.38
2022-11-01T08:07:05.460Z,100240.75
2022-11-01T08:09:07.408Z,100243.06
2022-11-01T08:11:09.289Z,100248.16
2022-11-01T08:13:25.026Z,100234.59
2022-11-01T08:15:26.850Z,100220.25
2022-11-01T08:17:33.490Z,100224.50
2022-11-01T08:19:35.202Z,100227.66
2022-11-01T08:21:37.172Z,100229.00
2022-11-01T08:23:39.154Z,100228.75
2022-11-01T08:25:41.187Z,100230.19
2022-11-01T08:27:45.436Z,100231.56
2022-11-01T08:29:47.457Z,100225.72
2022-11-01T08:31:49.509Z,100221.88
2022-11-01T08:33:51.538Z,100227.84
2022-11-01T08:35:53.968Z,100225.84
2022-11-01T08:37:56.384Z,100224.59
2022-11-01T08:39:58.351Z,100229.84
2022-11-01T08:42:00.845Z,100226.19
2022-11-01T08:44:02.917Z,100229.34
2022-11-01T08:46:05.019Z,100234.44
2022-11-01T08:48:07.402Z,100224.31
2022-11-01T08:50:11.942Z,100232.09
2022-11-01T08:52:14.108Z,100227.53
2022-11-01T08:54:16.128Z,100235.41
2022-11-01T08:56:20.745Z,100220.53
2022-11-01T08:58:22.862Z,100226.75
2022-11-01T09:00:24.823Z,100232.88
2022-11-01T09:02:27.192Z,100226.97
2022-11-01T09:04:29.821Z,100230.56
2022-11-01T09:06:36.197Z,100225.06
2022-11-01T09:08:38.803Z,100221.97
2022-11-01T09:10:40.747Z,100217.91
2022-11-01T09:12:43.686Z,100216.00
2022-11-01T09:14:45.818Z,100219.72
2022-11-01T09:16:47.903Z,100219.53
2022-11-01T09:18:50.203Z,100222.66
2022-11-01T09:20:55.975Z,100212.97
2022-11-01T09:22:57.902Z,100211.47
2022-11-01T09:25:00.093Z,100208.28
2022-11-01T09:27:02.586Z,100200.81
2022-11-01T09:29:04.958Z,100207.91
2022-11-01T09:31:22.490Z,100202.19
2022-11-01T09:33:25.253Z,100198.09
2022-11-01T09:35:27.421Z,100194.22
2022-11-01T09:37:29.367Z,100192.84
2022-11-01T09:39:31.321Z,100197.13
2022-11-01T09:41:39.203Z,100197.41
2022-11-01T09:43:44.445Z,100197.13
2022-11-01T09:45:48.773Z,100196.72
2022-11-01T09:47:54.838Z,100202.00
2022-11-01T09:50:38.677Z,100200.94
2022-11-01T09:52:41.323Z,100196.72
2022-11-01T09:54:43.722Z,100196.44
2022-11-01T09:57:07.520Z,100197.94
2022-11-01T09:59:38.838Z,100189.50
2022-11-01T10:01:55.798Z,100191.09
2022-11-01T10:04:04.122Z,100183.66
2022-11-01T10:06:44.305Z,100175.16
2022-11-01T10:08:46.452Z,100181.75
2022-11-01T10:11:04.279Z,100175.44
2022-11-01T10:13:24.528Z,100172.41
2022-11-01T10:15:41.961Z,100171.69
2022-11-01T10:17:52.458Z,100181.44
2022-11-01T10:22:32.566Z,100172.91
2022-11-01T10:24:49.308Z,100161.47
2022-11-01T10:26:56.182Z,100155.94
2022-11-01T10:29:16.673Z,100166.31
2022-11-01T10:31:23.177Z,100163.50
2022-11-01T10:33:30.760Z,100166.78
2022-11-01T10:35:38.487Z,100163.16
2022-11-01T10:37:57.460Z,100158.81
2022-11-01T10:40:18.800Z,100157.06
2022-11-01T10:42:20.863Z,100155.53
2022-11-01T10:44:38.574Z,100153.41
2022-11-01T10:46:45.671Z,100159.31
2022-11-01T10:49:01.628Z,100154.84
2022-11-01T10:51:06.554Z,100154.09
2022-11-01T10:53:12.847Z,100159.31
2022-11-01T10:58:57.172Z,100161.75
2022-11-01T11:01:06.257Z,100148.31
2022-11-01T11:03:15.700Z,100150.91
2022-11-01T11:05:19.199Z,100148.41
2022-11-01T11:07:24.215Z,100145.53
2022-11-01T11:09:34.748Z,100147.19
2022-11-01T11:11:44.497Z,100142.47
2022-11-01T11:13:53.967Z,100136.69
2022-11-01T11:16:02.519Z,100140.97
2022-11-01T11:18:17.544Z,100143.13
2022-11-01T11:20:30.563Z,100136.91
2022-11-01T11:22:37.625Z,100136.91
2022-11-01T11:24:44.471Z,100136.44
2022-11-01T11:26:53.194Z,100142.78
2022-11-01T11:28:57.484Z,100137.84
2022-11-01T11:31:18.763Z,100132.06
2022-11-01T11:33:22.137Z,100129.88
2022-11-01T11:35:27.767Z,100128.00
2022-11-01T11:37:33.581Z,100119.59
2022-11-01T11:39:37.925Z,100122.22
2022-11-01T11:41:42.986Z,100117.41
2022-11-01T11:43:45.457Z,100113.56
2022-11-01T11:46:03.358Z,100112.91
2022-11-01T11:48:20.634Z,100107.44
2022-11-01T11:50:32.478Z,100112.47
2022-11-01T11:52:38.519Z,100107.53
2022-11-01T11:54:42.257Z,100098.75
2022-11-01T11:56:46.125Z,100103.72
2022-11-01T11:58:48.831Z,100095.44
2022-11-01T12:00:55.128Z,100104.38
2022-11-01T12:03:00.627Z,100102.16
2022-11-01T12:05:09.047Z,100094.09
2022-11-01T12:07:28.249Z,100103.25
2022-11-01T12:09:48.277Z,100101.19
2022-11-01T12:11:50.656Z,100103.69
2022-11-01T12:14:06.456Z,100102.28
2022-11-01T12:16:17.827Z,100096.34
2022-11-01T12:18:20.110Z,100092.38
2022-11-01T12:20:26.960Z,100093.00
2022-11-01T12:22:33.204Z,100098.25
2022-11-01T12:24:48.483Z,100091.03
2022-11-01T12:26:54.185Z,100090.94
2022-11-01T12:29:03.369Z,100090.03
2022-11-01T12:31:19.620Z,100084.47
2022-11-01T12:33:28.206Z,100085.47
2022-11-01T12:35:35.236Z,100081.72
2022-11-01T12:37:52.021Z,100079.34
2022-11-01T12:40:26.525Z,100073.47
2022-11-01T12:42:32.978Z,100069.16
2022-11-01T12:44:48.561Z,100075.72
2022-11-01T12:47:00.382Z,100065.66
2022-11-01T12:49:34.662Z,100066.53
2022-11-01T12:51:42.606Z,100063.44
2022-11-01T12:54:02.251Z,100060.06
2022-11-01T12:56:04.518Z,100060.69
2022-11-01T12:58:13.356Z,100064.53
2022-11-01T13:00:20.362Z,100054.47
2022-11-01T13:02:48.169Z,100054.19
2022-11-01T13:05:00.384Z,100050.09
2022-11-01T13:07:21.541Z,100050.09
2022-11-01T13:09:38.553Z,100047.16
2022-11-01T13:12:05.308Z,100040.94
2022-11-01T13:14:19.275Z,100039.16
2022-11-01T13:16:34.604Z,100043.78
2022-11-01T13:18:58.386Z,100049.38
2022-11-01T13:21:03.358Z,100049.38
2022-11-01T13:23:24.297Z,100056.16
2022-11-01T13:25:36.364Z,100060.66
2022-11-01T13:27:48.910Z,100049.72
2022-11-01T13:30:03.545Z,100045.59
2022-11-01T13:32:18.405Z,100051.59
2022-11-01T13:34:48.089Z,100037.09
2022-11-01T13:37:19.071Z,100037.75
2022-11-01T13:39:38.216Z,100031.75
2022-11-01T13:41:48.926Z,100029.78
2022-11-01T13:43:58.239Z,100035.59
2022-11-01T13:46:24.358Z,100026.75
2022-11-01T13:48:54.261Z,100027.00
2022-11-01T13:51:16.308Z,100022.75
2022-11-01T13:53:46.079Z,100019.38
2022-11-01T13:55:58.139Z,100030.44
2022-11-01T13:58:01.065Z,100024.97
2022-11-01T14:00:09.768Z,100020.72
2022-11-01T14:02:55.347Z,100020.69
2022-11-01T14:05:03.180Z,100015.50
2022-11-01T14:07:15.208Z,100021.66
2022-11-01T14:09:26.787Z,100023.97
2022-11-01T14:12:07.835Z,100013.75
2022-11-01T14:14:31.797Z,100019.59
2022-11-01T14:16:33.838Z,100023.81
2022-11-01T14:19:16.053Z,100022.91
2022-11-01T14:21:27.566Z,100027.25
2022-11-01T14:23:29.893Z,100023.75
2022-11-01T14:25:32.958Z,100033.31
2022-11-01T14:27:36.974Z,100028.16
2022-11-01T14:29:39.240Z,100026.41
2022-11-01T14:31:45.923Z,100021.50
2022-11-01T14:33:48.670Z,100021.50
2022-11-01T14:35:57.257Z,100021.13
2022-11-01T14:38:14.763Z,100021.03
2022-11-01T14:40:26.079Z,100014.69
2022-11-01T14:42:41.849Z,100024.88
2022-11-01T14:44:50.529Z,100014.91
2022-11-01T14:46:56.578Z,100007.06
2022-11-01T14:49:28.004Z,100016.47
2022-11-01T14:51:32.181Z,100003.69
2022-11-01T14:53:38.261Z,100005.13
2022-11-01T14:55:40.345Z,100002.63
2022-11-01T14:57:43.241Z,100006.44
2022-11-01T14:59:45.206Z,100008.53
2022-11-01T15:01:50.404Z,100002.31
2022-11-01T15:04:01.157Z,100002.91
2022-11-01T15:06:04.943Z,100004.00
2022-11-01T15:08:31.047Z,100003.16
2022-11-01T15:10:41.757Z,100001.75
2022-11-01T15:12:54.128Z,100001.63
2022-11-01T15:14:58.413Z,100003.94
2022-11-01T15:17:00.957Z,100003.25
2022-11-01T15:19:15.180Z,100013.63
2022-11-01T15:22:07.087Z,100015.59
2022-11-01T15:24:20.468Z,100008.59
2022-11-01T15:26:27.224Z,100009.66
2022-11-01T15:28:51.552Z,100003.09
2022-11-01T15:31:00.043Z,99992.41
2022-11-01T15:33:30.997Z,99994.69
2022-11-01T15:35:33.556Z,99998.63
2022-11-01T15:37:37.053Z,99989.06
2022-11-01T15:39:39.389Z,99988.31
2022-11-01T15:41:42.044Z,99986.41
2022-11-01T15:43:51.482Z,99991.41
2022-11-01T15:46:01.729Z,99991.94
2022-11-01T15:48:10.135Z,99985.91
2022-11-01T15:50:13.127Z,99986.78
2022-11-01T15:52:19.651Z,99983.91
2022-11-01T15:54:31.856Z,99978.78
2022-11-01T15:56:54.547Z,99980.44
2022-11-01T15:59:00.557Z,99993.09
2022-11-01T16:01:20.607Z,99981.72
2022-11-01T16:03:29.322Z,99987.25
2022-11-01T16:06:01.354Z,99983.22
2022-11-01T16:08:07.515Z,99992.34
2022-11-01T16:10:30.063Z,99998.41
2022-11-01T16:12:36.581Z,99993.84
2022-11-01T16:14:38.558Z,99996.56
2022-11-01T16:17:06.642Z,99999.94
2022-11-01T16:19:27.787Z,99997.59
2022-11-01T16:21:30.854Z,100001.09
2022-11-01T16:23:32.955Z,100000.31
2022-11-01T16:25:39.583Z,99998.88
2022-11-01T16:28:02.382Z,99995.97
2022-11-01T16:30:10.372Z,99998.56
2022-11-01T16:32:27.346Z,100006.34
2022-11-01T16:34:29.318Z,99998.97
2022-11-01T16:36:31.284Z,99995.38
2022-11-01T16:38:33.388Z,99995.38
2022-11-01T16:40:35.542Z,100001.63
2022-11-01T16:42:37.720Z,99991.03
2022-11-01T16:44:40.594Z,99992.22
2022-11-01T16:46:42.727Z,99995.56
2022-11-01T16:48:56.419Z,100003.88
2022-11-01T16:51:00.338Z,100010.09
2022-11-01T16:53:02.510Z,100002.88
2022-11-01T16:55:04.894Z,100003.44
2022-11-01T16:57:18.552Z,100006.00
2022-11-01T16:59:27.681Z,100001.06
2022-11-01T17:01:35.059Z,100004.13
2022-11-01T17:03:38.053Z,100003.06
2022-11-01T17:09:16.553Z,100004.97
2022-11-01T17:11:18.790Z,100004.13
2022-11-01T17:13:20.708Z,100004.03
2022-11-01T17:15:23.193Z,99998.59
2022-11-01T17:17:27.591Z,100004.19
2022-11-01T17:19:33.226Z,99998.94
2022-11-01T17:21:39.562Z,100003.59
2022-11-01T17:23:41.756Z,99995.63
2022-11-01T17:25:47.519Z,100001.16
2022-11-01T17:27:51.887Z,99994.97
2022-11-01T17:29:53.997Z,99998.75
2022-11-01T17:31:56.134Z,100005.91
2022-11-01T17:34:00.825Z,100004.50
2022-11-01T17:36:03.145Z,100003.19
2022-11-01T17:38:09.585Z,100002.94
2022-11-01T17:40:25.365Z,100003.13
2022-11-01T17:42:27.774Z,99999.25
2022-11-01T17:44:32.593Z,100001.09
2022-11-01T17:46:34.705Z,99995.66
2022-11-01T17:48:39.399Z,100004.78
2022-11-01T17:50:42.445Z,99994.00
2022-11-01T17:52:44.584Z,99990.59
2022-11-01T17:54:46.896Z,99989.63
2022-11-01T17:56:51.437Z,99989.63
2022-11-01T17:58:53.977Z,99985.19
2022-11-01T18:00:56.100Z,99987.09
2022-11-01T18:02:58.868Z,99994.44
2022-11-01T18:05:00.786Z,99985.50
2022-11-01T18:07:06.528Z,99984.84
2022-11-01T18:09:23.645Z,99982.44
2022-11-01T18:11:40.009Z,99980.81
2022-11-01T18:14:11.404Z,99985.63
2022-11-01T18:16:29.657Z,99988.63
2022-11-01T18:18:32.021Z,99981.69
2022-11-01T18:20:50.092Z,99982.56
2022-11-01T18:23:00.782Z,99994.56
2022-11-01T18:25:25.423Z,99988.25
2022-11-01T18:27:35.882Z,99988.25
2022-11-01T18:29:41.564Z,99992.63
2022-11-01T18:31:48.885Z,100004.34
2022-11-01T18:34:20.703Z,99991.31
2022-11-01T18:36:33.591Z,99993.06
2022-11-01T18:38:56.382Z,100000.16
2022-11-01T18:41:00.657Z,99993.00
2022-11-01T18:43:05.177Z,100002.00
2022-11-01T18:45:26.851Z,99995.31
2022-11-01T18:47:35.011Z,100004.25
2022-11-01T18:49:39.580Z,99997.91
2022-11-01T18:51:41.600Z,99991.97
2022-11-01T18:53:43.842Z,99998.53
2022-11-01T18:56:14.182Z,100002.81
2022-11-01T18:58:31.272Z,100008.13
2022-11-01T19:00:33.621Z,100000.88
2022-11-01T19:02:36.195Z,100001.16
2022-11-01T19:04:41.250Z,100000.34
2022-11-01T19:06:44.760Z,100000.41
2022-11-01T19:08:58.636Z,100001.00
2022-11-01T19:11:01.615Z,100005.41
2022-11-01T19:13:12.899Z,100002.94
2022-11-01T19:15:28.415Z,100007.81
2022-11-01T19:17:37.529Z,100011.47
2022-11-01T19:19:42.311Z,100017.88
2022-11-01T19:21:44.324Z,100007.91
2022-11-01T19:24:28.163Z,100013.03
2022-11-01T19:26:39.262Z,100021.16
2022-11-01T19:28:41.252Z,100011.09
2022-11-01T19:30:49.207Z,100012.28
2022-11-01T19:32:54.187Z,100015.19
2022-11-01T19:34:56.284Z,100013.44
2022-11-01T19:37:00.497Z,100010.00
2022-11-01T19:39:28.034Z,100008.66
2022-11-01T19:41:33.693Z,100010.22
2022-11-01T19:43:35.858Z,100009.69
2022-11-01T19:45:49.663Z,100010.81
2022-11-01T19:47:51.668Z,100008.84
2022-11-01T19:49:53.760Z,100006.19
2022-11-01T19:52:09.855Z,100010.28
2022-11-01T19:54:12.666Z,100021.88
2022-11-01T19:56:21.629Z,100025.78
2022-11-01T19:58:30.153Z,100019.59
2022-11-01T20:00:36.381Z,100018.63
2022-11-01T20:02:39.134Z,100009.91
2022-11-01T20:04:41.870Z,100018.13
2022-11-01T20:06:50.729Z,100018.56
2022-11-01T20:08:55.726Z,100021.22
2022-11-01T20:10:57.665Z,100026.63
2022-11-01T20:12:59.675Z,100020.47
2022-11-01T20:15:05.264Z,100024.38
2022-11-01T20:17:07.386Z,100022.63
2022-11-01T20:19:13.171Z,100022.72
2022-11-01T20:21:18.925Z,100013.78
2022-11-01T20:23:26.200Z,100018.41
2022-11-01T20:25:31.023Z,100021.19
2022-11-01T20:27:33.328Z,100028.44
2022-11-01T20:29:35.515Z,100023.03
2022-11-01T20:31:39.959Z,100020.53
2022-11-01T20:33:42.405Z,100022.38
2022-11-01T20:35:44.691Z,100015.34
2022-11-01T20:38:24.385Z,100030.72
2022-11-01T20:40:26.810Z,100027.16
2022-11-01T20:42:29.286Z,100041.78
2022-11-01T20:44:34.626Z,100032.13
2022-11-01T20:47:43.899Z,100025.47
2022-11-01T20:49:48.739Z,100033.22
2022-11-01T20:51:50.828Z,100036.69
2022-11-01T20:53:55.820Z,100035.66
2022-11-01T20:55:57.804Z,100030.13
2022-11-01T20:58:00.132Z,100028.19
2022-11-01T21:00:04.354Z,100024.59
2022-11-01T21:02:10.655Z,100029.91
2022-11-01T21:04:13.066Z,100036.16
2022-11-01T21:06:19.236Z,100036.16
2022-11-01T21:08:22.813Z,100033.38
2022-11-01T21:10:34.143Z,100032.72
2022-11-01T21:12:36.196Z,100037.88
2022-11-01T21:14:41.188Z,100039.81
2022-11-01T21:16:43.593Z,100046.09
2022-11-01T21:18:46.175Z,100041.56
2022-11-01T21:20:49.461Z,100045.22
2022-11-01T21:22:59.196Z,100039.94
2022-11-01T21:25:01.184Z,100037.41
2022-11-01T21:27:06.196Z,100035.16
2022-11-01T21:29:34.249Z,100039.75
2022-11-01T21:31:39.648Z,100035.16
2022-11-01T21:33:52.533Z,100031.91
2022-11-01T21:35:57.183Z,100029.88
2022-11-01T21:37:59.905Z,100031.88
2022-11-01T21:40:06.619Z,100036.41
2022-11-01T21:42:33.335Z,100025.81
2022-11-01T21:44:43.221Z,100030.19
2022-11-01T21:46:54.170Z,100028.13
2022-11-01T21:48:59.742Z,100029.09
2022-11-01T21:54:34.020Z,100041.00
2022-11-01T21:56:38.876Z,100031.06
2022-11-01T21:58:40.935Z,100042.03
2022-11-01T22:00:43.092Z,100030.41
2022-11-01T22:02:51.134Z,100044.81
2022-11-01T22:04:55.499Z,100044.88
2022-11-01T22:07:01.812Z,100056.66
2022-11-01T22:09:04.570Z,100057.81
2022-11-01T22:11:06.491Z,100055.22
2022-11-01T22:13:08.852Z,100048.91
2022-11-01T22:15:11.378Z,100054.47
2022-11-01T22:17:13.427Z,100044.75
2022-11-01T22:19:15.453Z,100048.38
2022-11-01T22:21:17.759Z,100038.69
2022-11-01T22:23:20.165Z,100048.59
2022-11-01T22:25:22.273Z,100054.81
2022-11-01T22:27:24.314Z,100047.72
2022-11-01T22:29:26.377Z,100056.81
2022-11-01T22:31:30.002Z,100055.84
2022-11-01T22:33:34.207Z,100057.06
2022-11-01T22:35:36.219Z,100056.22
2022-11-01T22:37:38.261Z,100062.56
2022-11-01T22:39:41.331Z,100055.53
2022-11-01T22:41:43.956Z,100060.75
2022-11-01T22:43:47.805Z,100074.22
2022-11-01T22:45:53.114Z,100067.78
2022-11-01T22:47:58.164Z,100074.13
2022-11-01T22:50:03.278Z,100075.91
2022-11-01T22:52:29.646Z,100077.28
2022-11-01T22:54:39.009Z,100083.41
2022-11-01T22:56:40.944Z,100073.44
2022-11-01T22:58:42.898Z,100070.59
2022-11-01T23:04:38.016Z,100067.13
2022-11-01T23:06:42.847Z,100071.25
2022-11-01T23:08:44.784Z,100075.81
2022-11-01T23:10:50.241Z,100087.38
2022-11-01T23:13:27.266Z,100084.56
2022-11-01T23:15:33.230Z,100081.66
2022-11-01T23:17:38.735Z,100076.09
2022-11-01T23:19:40.942Z,100070.78
2022-11-01T23:21:45.936Z,100075.16
2022-11-01T23:23:48.818Z,100073.13
2022-11-01T23:25:51.808Z,100080.22
2022-11-01T23:27:54.583Z,100082.03
2022-11-01T23:30:01.217Z,100081.16
2022-11-01T23:32:03.645Z,100088.81
2022-11-01T23:34:07.014Z,100077.13
2022-11-01T23:36:27.696Z,100089.16
2022-11-01T23:38:41.164Z,100090.81
2022-11-01T23:40:43.239Z,100094.09
2022-11-01T23:42:46.270Z,100099.44
2022-11-01T23:44:52.410Z,100106.81
2022-11-01T23:47:00.986Z,100096.94
2022-11-01T23:49:13.326Z,100105.81
2022-11-01T23:51:21.481Z,100103.91
2022-11-01T23:53:32.263Z,100107.47
2022-11-01T23:55:38.742Z,100108.41
2022-11-01T23:57:44.136Z,100101.09
2022-11-01T23:59:54.184Z,100099.53
